createdAt,value
2022-11-02T00:01:55.816Z,32.80
2022-11-02T00:04:24.522Z,32.83
2022-11-02T00:06:53.010Z,28.58
2022-11-02T00:09:21.640Z,27.65
2022-11-02T00:11:50.286Z,29.83
2022-11-02T00:14:18.867Z,28.23
2022-11-02T00:16:48.938Z,26.75
2022-11-02T00:19:17.607Z,25.80
2022-11-02T00:21:46.639Z,25.38
2022-11-02T00:24:18.227Z,27.83
2022-11-02T00:26:46.810Z,33.53
2022-11-02T00:29:15.470Z,33.60
2022-11-02T00:31:44.017Z,36.83
2022-11-02T00:34:14.058Z,42.55
2022-11-02T00:36:42.662Z,48.15
2022-11-02T00:39:11.215Z,44.05
2022-11-02T00:41:39.811Z,41.50
2022-11-02T00:44:08.399Z,44.45
2022-11-02T00:46:36.983Z,45.33
2022-11-02T00:49:06.149Z,42.72
2022-11-02T00:51:36.095Z,40.05
2022-11-02T00:54:04.774Z,40.45
2022-11-02T00:56:33.292Z,37.75
2022-11-02T00:59:01.882Z,43.60
2022-11-02T01:01:30.590Z,37.97
2022-11-02T01:03:59.676Z,32.88
2022-11-02T01:06:28.417Z,28.95
2022-11-02T01:08:58.349Z,35.85
2022-11-02T01:11:26.947Z,31.13
2022-11-02T01:13:55.536Z,31.20
2022-11-02T01:16:24.335Z,30.60
2022-11-02T01:18:54.427Z,28.20
2022-11-02T01:21:23.719Z,30.88
2022-11-02T01:23:52.477Z,26.80
2022-11-02T01:26:22.455Z,28.00
2022-11-02T01:28:51.062Z,31.00
2022-11-02T01:31:19.610Z,28.38
2022-11-02T01:33:48.819Z,32.45
2022-11-02T01:38:50.516Z,30.55
2022-11-02T01:41:21.035Z,27.92
2022-11-02T01:43:55.049Z,28.25
2022-11-02T01:46:31.302Z,29.85
2022-11-02T01:49:07.111Z,28.80
2022-11-02T01:51:41.513Z,28.42
2022-11-02T01:54:15.653Z,30.52
2022-11-02T01:56:53.379Z,26.98
2022-11-02T01:59:30.351Z,26.45
2022-11-02T02:01:58.985Z,29.70
2022-11-02T02:04:29.447Z,26.98
2022-11-02T02:07:00.243Z,24.67
2022-11-02T02:09:31.052Z,27.23
2022-11-02T02:12:00.938Z,28.00
2022-11-02T02:14:30.020Z,30.15
2022-11-02T02:17:25.974Z,23.35
2022-11-02T02:20:01.891Z,27.02
2022-11-02T02:22:57.620Z,27.67
2022-11-02T02:26:15.485Z,27.67
2022-11-02T02:28:53.457Z,28.13
2022-11-02T02:31:31.592Z,26.85
2022-11-02T02:34:10.650Z,25.70
2022-11-02T02:36:51.444Z,25.70
2022-11-02T02:39:29.526Z,22.65
2022-11-02T02:42:05.772Z,29.25
2022-11-02T02:44:43.118Z,27.10
2022-11-02T02:47:18.764Z,27.60
2022-11-02T02:49:54.703Z,25.50
2022-11-02T02:52:28.275Z,24.40
2022-11-02T02:55:02.140Z,25.08
2022-11-02T02:57:34.669Z,26.10
2022-11-02T03:00:05.260Z,26.63
2022-11-02T03:02:40.289Z,25.73
2022-11-02T03:05:25.295Z,24.27
2022-11-02T03:07:54.020Z,27.10
2022-11-02T03:10:30.737Z,29.38
2022-11-02T03:13:16.667Z,25.00
2022-11-02T03:15:55.981Z,25.77
2022-11-02T03:18:37.451Z,23.17
2022-11-02T03:21:18.302Z,23.33
2022-11-02T03:23:57.385Z,24.58
2022-11-02T03:26:34.800Z,26.17
2022-11-02T03:29:10.911Z,30.10
2022-11-02T03:31:46.955Z,28.88
2022-11-02T03:34:25.654Z,27.00
2022-11-02T03:37:02.562Z,22.55
2022-11-02T03:39:38.281Z,21.63
2022-11-02T03:42:10.717Z,24.85
2022-11-02T03:44:41.692Z,25.02
2022-11-02T03:47:17.244Z,21.13
2022-11-02T03:49:50.249Z,22.65
2022-11-02T03:52:27.137Z,20.15
2022-11-02T03:55:06.037Z,22.05
2022-11-02T03:57:41.986Z,20.45
2022-11-02T04:00:15.387Z,19.98
2022-11-02T04:02:50.241Z,23.02
2022-11-02T04:05:19.361Z,25.00
2022-11-02T04:08:11.148Z,20.40
2022-11-02T04:11:00.104Z,18.98
2022-11-02T04:13:46.065Z,21.20
2022-11-02T04:16:15.264Z,18.80
2022-11-02T04:19:02.885Z,20.40
2022-11-02T04:21:32.221Z,23.35
2022-11-02T04:24:18.013Z,19.67
2022-11-02T04:26:46.597Z,17.90
2022-11-02T04:29:15.286Z,24.60
2022-11-02T04:31:43.998Z,20.42
2022-11-02T04:34:12.894Z,22.38
2022-11-02T04:36:41.457Z,19.13
2022-11-02T04:39:09.025Z,22.27
2022-11-02T04:41:43.648Z,23.40
2022-11-02T04:44:14.432Z,21.60
2022-11-02T04:46:44.842Z,21.42
2022-11-02T04:49:15.089Z,20.95
2022-11-02T04:51:48.800Z,22.75
2022-11-02T04:54:18.691Z,49.15
2022-11-02T04:56:47.222Z,30.17
2022-11-02T04:59:15.741Z,22.23
2022-11-02T05:01:44.360Z,23.92
2022-11-02T05:04:14.379Z,21.77
2022-11-02T05:06:42.998Z,19.92
2022-11-02T05:09:12.286Z,19.00
2022-11-02T05:11:40.846Z,21.80
2022-11-02T05:14:09.514Z,22.15
2022-11-02T05:16:38.237Z,22.17
2022-11-02T05:19:09.954Z,22.60
2022-11-02T05:21:41.045Z,23.98
2022-11-02T05:24:09.770Z,21.38
2022-11-02T05:26:38.453Z,22.85
2022-11-02T05:29:07.554Z,20.25
2022-11-02T05:31:36.195Z,22.42
2022-11-02T05:34:04.757Z,20.23
2022-11-02T05:36:33.371Z,22.90
2022-11-02T05:39:03.357Z,33.08
2022-11-02T05:41:31.890Z,32.92
2022-11-02T05:44:00.449Z,24.30
2022-11-02T05:46:29.047Z,22.40
2022-11-02T05:48:57.613Z,27.00
2022-11-02T05:51:26.452Z,22.25
2022-11-02T05:53:55.850Z,22.63
2022-11-02T05:56:25.817Z,20.95
2022-11-02T05:58:56.195Z,18.70
2022-11-02T06:01:24.854Z,20.95
2022-11-02T06:03:54.488Z,20.83
2022-11-02T06:06:23.295Z,24.58
2022-11-02T06:08:51.946Z,23.00
2022-11-02T06:11:20.889Z,25.88
2022-11-02T06:13:52.697Z,24.02
2022-11-02T06:16:23.324Z,21.17
2022-11-02T06:18:52.548Z,20.02
2022-11-02T06:21:21.492Z,19.10
2022-11-02T06:23:50.314Z,21.35
2022-11-02T06:26:19.354Z,23.42
2022-11-02T06:28:48.090Z,20.88
2022-11-02T06:31:18.215Z,21.05
2022-11-02T06:33:47.145Z,22.83
2022-11-02T06:36:15.768Z,24.50
2022-11-02T06:38:46.108Z,21.38
2022-11-02T06:41:14.726Z,22.80
2022-11-02T06:43:43.348Z,21.67
2022-11-02T06:46:11.951Z,22.80
2022-11-02T06:48:42.052Z,21.20
2022-11-02T06:51:10.576Z,22.45
2022-11-02T06:53:39.149Z,20.67
2022-11-02T06:56:08.631Z,20.80
2022-11-02T06:58:37.235Z,23.70
2022-11-02T07:01:08.526Z,21.38
2022-11-02T07:03:37.587Z,20.90
2022-11-02T07:06:13.639Z,17.85
2022-11-02T07:08:43.570Z,18.40
2022-11-02T07:11:16.320Z,17.63
2022-11-02T07:13:45.399Z,26.75
2022-11-02T07:16:14.034Z,19.90
2022-11-02T07:18:42.841Z,16.85
2022-11-02T07:21:12.902Z,19.02
2022-11-02T07:23:41.534Z,16.70
2022-11-02T07:26:10.108Z,20.77
2022-11-02T07:28:38.690Z,15.95
2022-11-02T07:31:07.475Z,20.13
2022-11-02T07:33:36.204Z,18.85
2022-11-02T07:36:06.288Z,16.77
2022-11-02T07:38:36.238Z,17.17
2022-11-02T07:41:04.891Z,18.80
2022-11-02T07:43:33.523Z,13.65
2022-11-02T07:46:04.427Z,14.88
2022-11-02T07:48:33.332Z,11.00
2022-11-02T07:51:01.972Z,15.27
2022-11-02T07:53:30.676Z,12.73
2022-11-02T07:56:01.970Z,13.00
2022-11-02T07:58:31.019Z,9.23
2022-11-02T08:01:00.762Z,9.15
2022-11-02T08:03:30.367Z,7.45
2022-11-02T08:06:02.368Z,8.57
2022-11-02T08:08:31.355Z,7.88
2022-11-02T08:11:07.119Z,7.95
2022-11-02T08:13:36.428Z,8.13
2022-11-02T08:16:05.808Z,8.63
2022-11-02T08:18:34.755Z,8.13
2022-11-02T08:21:03.381Z,8.50
2022-11-02T08:23:32.343Z,8.35
2022-11-02T08:26:02.351Z,8.00
2022-11-02T08:28:36.072Z,9.35
2022-11-02T08:31:04.841Z,10.20
2022-11-02T08:33:33.409Z,7.45
2022-11-02T08:36:05.235Z,10.07
2022-11-02T08:38:34.316Z,7.95
2022-11-02T08:41:04.947Z,6.95
2022-11-02T08:43:33.657Z,10.13
2022-11-02T08:46:18.458Z,9.15
2022-11-02T08:48:47.396Z,8.90
2022-11-02T08:51:16.058Z,7.25
2022-11-02T08:53:50.213Z,7.18
2022-11-02T08:56:21.688Z,7.63
2022-11-02T08:58:53.928Z,8.85
2022-11-02T09:01:22.621Z,6.05
2022-11-02T09:03:51.235Z,16.58
2022-11-02T09:06:19.924Z,9.13
2022-11-02T09:08:48.480Z,9.05
2022-11-02T09:11:17.441Z,7.53
2022-11-02T09:13:47.453Z,7.65
2022-11-02T09:16:16.100Z,7.25
2022-11-02T09:18:44.701Z,7.05
2022-11-02T09:21:13.323Z,6.00
2022-11-02T09:23:42.015Z,7.53
2022-11-02T09:26:10.665Z,7.82
2022-11-02T09:28:39.343Z,7.15
2022-11-02T09:31:11.582Z,5.38
2022-11-02T09:33:40.560Z,7.82
2022-11-02T09:36:10.317Z,6.40
2022-11-02T09:38:38.937Z,6.47
2022-11-02T09:41:19.171Z,6.90
2022-11-02T09:44:01.847Z,5.78
2022-11-02T09:46:39.942Z,7.22
2022-11-02T09:49:16.655Z,4.50
2022-11-02T09:51:49.984Z,5.00
2022-11-02T09:54:26.754Z,5.93
2022-11-02T09:57:03.033Z,5.55
2022-11-02T09:59:32.092Z,6.75
2022-11-02T10:02:14.184Z,8.77
2022-11-02T10:05:21.831Z,8.38
2022-11-02T10:08:38.770Z,8.05
2022-11-02T10:11:25.668Z,8.90
2022-11-02T10:14:02.092Z,8.65
2022-11-02T10:16:39.439Z,10.73
2022-11-02T10:19:18.639Z,6.43
2022-11-02T10:21:52.629Z,6.20
2022-11-02T10:24:27.652Z,7.28
2022-11-02T10:27:01.401Z,8.27
2022-11-02T10:29:46.745Z,8.55
2022-11-02T10:32:17.302Z,8.30
2022-11-02T10:34:58.524Z,7.03
2022-11-02T10:37:58.319Z,8.00
2022-11-02T10:40:57.794Z,8.60
2022-11-02T10:43:51.839Z,7.63
2022-11-02T10:46:42.649Z,6.20
2022-11-02T10:49:22.478Z,7.32
2022-11-02T10:51:53.114Z,7.03
2022-11-02T10:54:26.580Z,8.07
2022-11-02T10:57:10.604Z,6.65
2022-11-02T10:59:39.148Z,6.57
2022-11-02T11:02:14.654Z,9.07
2022-11-02T11:04:44.521Z,9.80
2022-11-02T11:07:27.456Z,8.68
2022-11-02T11:09:58.695Z,9.40
2022-11-02T11:12:34.790Z,9.48
2022-11-02T11:20:45.810Z,8.13
2022-11-02T11:23:25.902Z,9.40
2022-11-02T11:26:03.394Z,9.40
2022-11-02T11:28:34.908Z,7.80
2022-11-02T11:31:12.079Z,9.38
2022-11-02T11:33:51.989Z,14.48
2022-11-02T11:36:31.162Z,8.63
2022-11-02T11:39:04.628Z,8.77
2022-11-02T11:41:35.470Z,8.70
2022-11-02T11:44:05.346Z,6.43
2022-11-02T11:46:48.411Z,7.18
2022-11-02T11:49:41.532Z,5.97
2022-11-02T11:52:27.040Z,9.35
2022-11-02T11:55:03.060Z,5.70
2022-11-02T11:57:34.812Z,6.05
2022-11-02T12:00:27.989Z,5.22
2022-11-02T12:03:06.795Z,8.85
2022-11-02T12:05:55.894Z,5.47
2022-11-02T12:08:43.981Z,6.75
2022-11-02T12:11:35.423Z,7.20
2022-11-02T12:14:24.182Z,13.75
2022-11-02T12:17:29.372Z,12.63
2022-11-02T12:20:21.345Z,6.18
2022-11-02T12:23:01.687Z,6.57
2022-11-02T12:25:49.663Z,5.57
2022-11-02T12:28:36.118Z,5.40
2022-11-02T12:31:22.210Z,3.75
2022-11-02T12:34:12.510Z,6.28
2022-11-02T12:40:08.048Z,3.15
2022-11-02T12:42:44.951Z,6.05
2022-11-02T12:45:36.345Z,5.68
2022-11-02T12:48:09.542Z,5.07
2022-11-02T12:50:56.059Z,3.00
2022-11-02T12:53:45.358Z,3.80
2022-11-02T12:56:22.312Z,4.38
2022-11-02T12:58:51.320Z,5.05
2022-11-02T13:01:29.467Z,6.18
2022-11-02T13:04:10.920Z,8.50
2022-11-02T13:06:44.679Z,4.28
2022-11-02T13:09:22.654Z,6.10
2022-11-02T13:12:01.474Z,7.25
2022-11-02T13:14:39.352Z,7.80
2022-11-02T13:17:16.893Z,4.82
2022-11-02T13:19:53.203Z,5.20
2022-11-02T13:22:29.494Z,5.28
2022-11-02T13:25:07.597Z,4.68
2022-11-02T13:27:42.193Z,4.13
2022-11-02T13:30:17.316Z,4.50
2022-11-02T13:32:52.908Z,5.88
2022-11-02T13:35:26.362Z,5.80
2022-11-02T13:38:02.970Z,6.43
2022-11-02T13:40:41.467Z,6.40
2022-11-02T13:44:09.587Z,4.57
2022-11-02T13:47:03.576Z,4.88
2022-11-02T13:49:38.801Z,6.40
2022-11-02T13:52:15.956Z,6.45
2022-11-02T13:54:51.111Z,4.43
2022-11-02T13:57:33.931Z,6.57
2022-11-02T14:00:05.876Z,4.10
2022-11-02T14:02:44.103Z,3.85
2022-11-02T14:05:30.394Z,4.93
2022-11-02T14:08:04.859Z,4.43
2022-11-02T14:10:40.294Z,5.78
2022-11-02T14:13:14.730Z,5.13
2022-11-02T14:15:44.676Z,6.20
2022-11-02T14:18:31.253Z,5.68
2022-11-02T14:21:43.273Z,6.50
2022-11-02T14:24:54.126Z,4.50
2022-11-02T14:27:31.385Z,5.63
2022-11-02T14:30:00.304Z,4.20
2022-11-02T14:32:47.280Z,4.40
2022-11-02T14:35:38.732Z,3.97
2022-11-02T14:38:36.870Z,6.50
2022-11-02T14:41:33.730Z,7.65
2022-11-02T14:44:35.062Z,4.15
2022-11-02T14:47:12.651Z,4.88
2022-11-02T14:49:51.497Z,3.45
2022-11-02T14:52:28.707Z,5.22
2022-11-02T14:55:05.719Z,3.90
2022-11-02T14:57:38.754Z,4.25
2022-11-02T15:00:21.248Z,7.35
2022-11-02T15:02:53.372Z,5.32
2022-11-02T15:05:29.587Z,6.10
2022-11-02T15:08:05.691Z,6.18
2022-11-02T15:10:46.097Z,8.32
2022-11-02T15:13:49.090Z,7.63
2022-11-02T15:16:25.990Z,4.57
2022-11-02T15:18:56.031Z,4.28
2022-11-02T15:21:30.031Z,4.55
2022-11-02T15:24:21.337Z,4.18
2022-11-02T15:26:56.159Z,4.18
2022-11-02T15:29:42.222Z,4.07
2022-11-02T15:32:22.872Z,11.90
2022-11-02T15:34:55.534Z,5.00
2022-11-02T15:37:28.842Z,4.32
2022-11-02T15:40:01.327Z,3.72
2022-11-02T15:42:42.771Z,4.15
2022-11-02T15:45:50.596Z,3.85
2022-11-02T15:48:41.536Z,6.28
2022-11-02T15:51:23.043Z,5.90
2022-11-02T15:54:19.630Z,3.78
2022-11-02T15:57:02.325Z,6.35
2022-11-02T16:00:19.540Z,9.77
2022-11-02T16:02:51.436Z,6.00
2022-11-02T16:05:25.147Z,7.32
2022-11-02T16:08:10.506Z,4.45
2022-11-02T16:10:39.777Z,3.55
2022-11-02T16:13:18.037Z,4.70
2022-11-02T16:15:51.299Z,4.10
2022-11-02T16:18:28.363Z,3.90
2022-11-02T16:21:02.535Z,6.55
2022-11-02T16:23:37.105Z,4.60
2022-11-02T16:26:09.549Z,3.97
2022-11-02T16:28:40.097Z,5.13
2022-11-02T16:31:20.011Z,23.05
2022-11-02T16:33:51.954Z,7.20
2022-11-02T16:36:23.971Z,4.05
2022-11-02T16:39:01.353Z,7.43
2022-11-02T16:41:32.163Z,4.43
2022-11-02T16:44:09.811Z,4.95
2022-11-02T16:46:50.301Z,3.10
2022-11-02T16:49:21.706Z,3.72
2022-11-02T16:51:53.181Z,3.40
2022-11-02T16:54:31.492Z,4.03
2022-11-02T16:57:11.299Z,3.45
2022-11-02T16:59:51.636Z,5.35
2022-11-02T17:02:38.298Z,4.95
2022-11-02T17:05:17.087Z,3.17
2022-11-02T17:07:54.529Z,2.92
2022-11-02T17:10:28.644Z,5.40
2022-11-02T17:12:58.893Z,3.72
2022-11-02T17:15:30.413Z,2.35
2022-11-02T17:18:26.718Z,3.50
2022-11-02T17:21:27.359Z,15.73
2022-11-02T17:24:00.583Z,6.25
2022-11-02T17:26:39.957Z,5.93
2022-11-02T17:29:34.916Z,6.40
2022-11-02T17:32:05.400Z,2.95
2022-11-02T17:34:36.272Z,5.25
2022-11-02T17:37:07.513Z,2.90
2022-11-02T17:39:36.115Z,5.75
2022-11-02T17:42:22.997Z,4.10
2022-11-02T17:44:51.560Z,4.15
2022-11-02T17:47:20.829Z,3.75
2022-11-02T17:49:52.191Z,5.00
2022-11-02T17:52:21.519Z,4.30
2022-11-02T17:54:50.132Z,2.75
2022-11-02T17:57:19.214Z,2.35
2022-11-02T17:59:47.805Z,3.45
2022-11-02T18:02:17.828Z,5.55
2022-11-02T18:04:46.514Z,3.13
2022-11-02T18:07:16.518Z,5.78
2022-11-02T18:09:45.131Z,5.40
2022-11-02T18:12:15.191Z,2.70
2022-11-02T18:14:44.052Z,4.43
2022-11-02T18:17:12.718Z,5.30
2022-11-02T18:19:41.321Z,4.47
2022-11-02T18:22:13.256Z,4.95
2022-11-02T18:24:43.780Z,5.32
2022-11-02T18:27:12.351Z,4.75
2022-11-02T18:29:42.252Z,4.85
2022-11-02T18:32:10.935Z,3.80
2022-11-02T18:34:41.464Z,3.42
2022-11-02T18:37:10.701Z,5.45
2022-11-02T18:39:39.281Z,3.63
2022-11-02T18:42:09.461Z,8.88
2022-11-02T18:44:40.484Z,4.47
2022-11-02T18:47:10.349Z,4.97
2022-11-02T18:49:39.053Z,4.15
2022-11-02T18:52:07.917Z,4.25
2022-11-02T18:54:38.042Z,3.40
2022-11-02T18:57:08.399Z,7.55
2022-11-02T18:59:37.120Z,3.00
2022-11-02T19:02:06.696Z,4.07
2022-11-02T19:04:35.644Z,4.78
2022-11-02T19:07:22.314Z,4.53
2022-11-02T19:09:50.992Z,5.32
2022-11-02T19:12:24.300Z,4.00
2022-11-02T19:14:54.439Z,4.03
2022-11-02T19:17:25.286Z,8.30
2022-11-02T19:19:54.237Z,10.43
2022-11-02T19:22:25.700Z,3.90
2022-11-02T19:24:54.760Z,8.65
2022-11-02T19:27:26.547Z,10.75
2022-11-02T19:29:57.282Z,7.38
2022-11-02T19:32:27.108Z,5.65
2022-11-02T19:34:55.975Z,3.72
2022-11-02T19:37:24.651Z,4.25
2022-11-02T19:39:55.310Z,3.75
2022-11-02T19:42:25.275Z,4.22
2022-11-02T19:44:59.542Z,4.10
2022-11-02T19:47:28.241Z,6.05
2022-11-02T19:49:56.950Z,5.20
2022-11-02T19:52:25.589Z,5.25
2022-11-02T19:54:54.274Z,4.38
2022-11-02T19:57:25.460Z,3.92
2022-11-02T19:59:57.917Z,5.18
2022-11-02T20:02:31.650Z,7.38
2022-11-02T20:05:00.370Z,4.10
2022-11-02T20:07:28.987Z,4.60
2022-11-02T20:09:59.659Z,3.83
2022-11-02T20:12:29.961Z,3.63
2022-11-02T20:14:58.592Z,4.05
2022-11-02T20:17:38.066Z,4.57
2022-11-02T20:20:11.512Z,6.60
2022-11-02T20:22:40.131Z,5.45
2022-11-02T20:25:10.057Z,8.57
2022-11-02T20:27:41.334Z,5.18
2022-11-02T20:30:12.767Z,5.95
2022-11-02T20:32:41.427Z,4.47
2022-11-02T20:35:13.797Z,6.10
2022-11-02T20:37:42.642Z,4.18
2022-11-02T20:40:12.620Z,5.13
2022-11-02T20:42:42.707Z,3.63
2022-11-02T20:45:12.172Z,4.10
2022-11-02T20:47:40.830Z,5.18
2022-11-02T20:50:15.800Z,5.15
2022-11-02T20:52:46.444Z,4.63
2022-11-02T20:55:15.156Z,4.93
2022-11-02T20:57:48.741Z,5.35
2022-11-02T21:00:19.364Z,7.32
2022-11-02T21:02:48.843Z,6.03
2022-11-02T21:05:17.558Z,6.43
2022-11-02T21:07:46.095Z,6.20
2022-11-02T21:10:14.677Z,4.68
2022-11-02T21:13:16.275Z,5.47
2022-11-02T21:15:44.914Z,7.30
2022-11-02T21:18:14.006Z,4.75
2022-11-02T21:20:43.037Z,8.48
2022-11-02T21:23:11.913Z,8.05
2022-11-02T21:25:41.315Z,4.90
2022-11-02T21:28:11.351Z,7.47
2022-11-02T21:30:39.866Z,4.65
2022-11-02T21:33:08.794Z,9.70
2022-11-02T21:35:37.819Z,6.75
2022-11-02T21:38:07.961Z,7.78
2022-11-02T21:40:36.720Z,4.22
2022-11-02T21:43:05.514Z,3.92
2022-11-02T21:45:38.131Z,4.43
2022-11-02T21:48:07.107Z,5.55
2022-11-02T21:50:35.616Z,5.82
2022-11-02T21:53:04.568Z,5.65
2022-11-02T21:55:33.572Z,4.97
2022-11-02T21:58:02.187Z,8.15
2022-11-02T22:00:50.836Z,5.57
2022-11-02T22:03:19.815Z,4.82
2022-11-02T22:05:57.507Z,8.45
2022-11-02T22:08:41.254Z,5.32
2022-11-02T22:11:12.386Z,6.80
2022-11-02T22:13:43.937Z,6.82
2022-11-02T22:16:17.154Z,5.43
2022-11-02T22:18:49.935Z,6.35
2022-11-02T22:21:19.911Z,4.65
2022-11-02T22:23:50.399Z,5.65
2022-11-02T22:26:21.663Z,8.68
2022-11-02T22:28:50.742Z,4.68
2022-11-02T22:31:22.133Z,7.50
2022-11-02T22:33:55.434Z,5.95
2022-11-02T22:36:27.841Z,8.35
2022-11-02T22:38:57.707Z,6.97
2022-11-02T22:41:28.844Z,5.68
2022-11-02T22:44:00.225Z,5.63
2022-11-02T22:46:31.166Z,6.28
2022-11-02T22:49:02.648Z,6.00
2022-11-02T22:51:34.955Z,6.13
2022-11-02T22:54:06.564Z,6.95
2022-11-02T22:56:36.484Z,5.07
2022-11-02T22:59:06.495Z,6.25
2022-11-02T23:01:37.312Z,6.18
2022-11-02T23:04:08.469Z,9.15
2022-11-02T23:06:37.151Z,5.68
2022-11-02T23:09:06.180Z,4.70
2022-11-02T23:11:38.454Z,5.82
2022-11-02T23:14:09.553Z,5.38
2022-11-02T23:16:40.835Z,6.43
2022-11-02T23:19:29.892Z,7.18
2022-11-02T23:22:17.381Z,5.93
2022-11-02T23:25:06.394Z,9.13
2022-11-02T23:27:59.598Z,5.20
2022-11-02T23:30:49.047Z,6.28
2022-11-02T23:33:18.703Z,3.38
2022-11-02T23:36:06.145Z,6.65
2022-11-02T23:38:48.858Z,6.07
2022-11-02T23:41:18.454Z,4.50
2022-11-02T23:43:47.535Z,3.80
2022-11-02T23:46:17.550Z,4.70
2022-11-02T23:48:49.635Z,4.18
2022-11-02T23:51:40.132Z,3.60
2022-11-02T23:54:27.040Z,3.92
2022-11-02T23:56:55.639Z,5.57
2022-11-02T23:59:24.291Z,6.60
